createdAt,value
2022-12-08T00:01:30.289Z,100953.09
2022-12-08T00:03:59.369Z,100953.59
2022-12-08T00:06:49.866Z,100950.16
2022-12-08T00:09:46.459Z,100944.41
2022-12-08T00:12:16.637Z,100943.78
2022-12-08T00:14:46.660Z,100940.03
2022-12-08T00:17:16.185Z,100932.72
2022-12-08T00:19:46.240Z,100935.75
2022-12-08T00:22:14.845Z,100935.38
2022-12-08T00:24:44.908Z,100931.56
2022-12-08T00:27:13.437Z,100923.63
2022-12-08T00:29:40.857Z,100911.31
2022-12-08T00:32:08.291Z,100905.88
2022-12-08T00:34:35.853Z,100912.06
2022-12-08T00:37:03.488Z,100904.19
2022-12-08T00:39:31.201Z,100908.81
2022-12-08T00:42:13.696Z,100902.56
2022-12-08T00:44:42.159Z,100905.13
2022-12-08T00:47:10.053Z,100900.22
2022-12-08T00:49:37.361Z,100898.06
2022-12-08T00:52:04.942Z,100902.59
2022-12-08T00:54:32.269Z,100896.09
2022-12-08T00:56:59.543Z,100898.22
2022-12-08T00:59:26.826Z,100889.94
2022-12-08T01:01:54.070Z,100893.97
2022-12-08T01:04:21.820Z,100887.22
2022-12-08T01:06:49.593Z,100874.09
2022-12-08T01:09:17.895Z,100882.44
2022-12-08T01:11:45.617Z,100879.59
2022-12-08T01:14:19.707Z,100882.06
2022-12-08T01:16:47.540Z,100878.59
2022-12-08T01:19:16.019Z,100874.09
2022-12-08T01:21:44.570Z,100867.81
2022-12-08T01:24:14.256Z,100873.69
2022-12-08T01:26:41.656Z,100865.09
2022-12-08T01:29:09.429Z,100871.53
2022-12-08T01:31:37.146Z,100862.84
2022-12-08T01:34:05.172Z,100864.16
2022-12-08T01:36:33.968Z,100866.47
2022-12-08T01:39:02.301Z,100861.63
2022-12-08T01:41:32.149Z,100865.84
2022-12-08T01:44:02.473Z,100859.06
2022-12-08T01:46:33.127Z,100858.53
2022-12-08T01:49:11.469Z,100856.66
2022-12-08T01:51:51.795Z,100864.53
2022-12-08T01:54:19.842Z,100866.53
2022-12-08T01:56:53.120Z,100866.06
2022-12-08T01:59:20.488Z,100870.78
2022-12-08T02:01:51.935Z,100861.44
2022-12-08T02:04:19.328Z,100861.94
2022-12-08T02:06:47.179Z,100854.13
2022-12-08T02:09:14.645Z,100851.03
2022-12-08T02:11:42.113Z,100846.53
2022-12-08T02:14:10.641Z,100845.44
2022-12-08T02:16:42.168Z,100850.91
2022-12-08T02:19:49.704Z,100855.25
2022-12-08T02:22:22.323Z,100848.47
2022-12-08T02:25:07.396Z,100853.88
2022-12-08T02:27:47.183Z,100848.16
2022-12-08T02:30:38.485Z,100858.84
2022-12-08T02:33:24.315Z,100859.41
2022-12-08T02:36:05.288Z,100845.41
2022-12-08T02:38:44.955Z,100852.53
2022-12-08T02:41:26.460Z,100850.00
2022-12-08T02:44:22.829Z,100852.19
2022-12-08T02:46:56.396Z,100848.94
2022-12-08T02:49:29.454Z,100834.75
2022-12-08T02:52:07.163Z,100833.94
2022-12-08T02:54:35.611Z,100824.53
2022-12-08T02:57:12.884Z,100829.38
2022-12-08T03:00:01.692Z,100825.22
2022-12-08T03:02:35.512Z,100822.25
2022-12-08T03:05:18.188Z,100828.19
2022-12-08T03:08:03.910Z,100820.31
2022-12-08T03:10:37.965Z,100817.19
2022-12-08T03:13:13.162Z,100811.78
2022-12-08T03:15:41.753Z,100818.84
2022-12-08T03:18:11.301Z,100812.28
2022-12-08T03:20:39.638Z,100804.50
2022-12-08T03:23:09.831Z,100799.00
2022-12-08T03:25:42.204Z,100793.28
2022-12-08T03:28:09.832Z,100796.06
2022-12-08T03:30:39.546Z,100799.09
2022-12-08T03:33:16.293Z,100793.09
2022-12-08T03:35:44.399Z,100782.66
2022-12-08T03:38:14.405Z,100778.78
2022-12-08T03:40:41.846Z,100779.09
2022-12-08T03:43:09.383Z,100779.81
2022-12-08T03:45:36.791Z,100770.66
2022-12-08T03:48:04.103Z,100770.91
2022-12-08T03:50:31.354Z,100771.03
2022-12-08T03:52:58.635Z,100772.28
2022-12-08T03:55:25.979Z,100764.19
2022-12-08T03:57:53.260Z,100764.50
2022-12-08T04:00:20.664Z,100756.56
2022-12-08T04:02:48.003Z,100750.78
2022-12-08T04:05:15.379Z,100761.94
2022-12-08T04:07:43.628Z,100758.88
2022-12-08T04:10:11.247Z,100759.53
2022-12-08T04:12:38.570Z,100752.53
2022-12-08T04:15:06.231Z,100746.88
2022-12-08T04:17:33.483Z,100746.63
2022-12-08T04:20:00.841Z,100753.19
2022-12-08T04:22:28.267Z,100748.84
2022-12-08T04:24:55.581Z,100742.75
2022-12-08T04:27:22.808Z,100746.50
2022-12-08T04:29:50.025Z,100738.06
2022-12-08T04:32:17.257Z,100744.41
2022-12-08T04:34:44.513Z,100741.44
2022-12-08T04:37:11.705Z,100732.72
2022-12-08T04:39:38.946Z,100730.50
2022-12-08T04:42:06.204Z,100720.59
2022-12-08T04:44:33.912Z,100725.97
2022-12-08T04:47:01.216Z,100728.94
2022-12-08T04:49:28.613Z,100718.59
2022-12-08T04:51:55.874Z,100708.91
2022-12-08T04:54:23.081Z,100710.44
2022-12-08T04:56:50.348Z,100717.56
2022-12-08T04:59:17.783Z,100709.94
2022-12-08T05:01:45.430Z,100710.13
2022-12-08T05:04:12.796Z,100704.94
2022-12-08T05:06:40.058Z,100713.06
2022-12-08T05:09:07.790Z,100705.44
2022-12-08T05:11:34.982Z,100707.06
2022-12-08T05:14:02.227Z,100699.47
2022-12-08T05:16:29.611Z,100700.56
2022-12-08T05:18:56.865Z,100701.00
2022-12-08T05:21:24.166Z,100697.06
2022-12-08T05:23:51.530Z,100692.69
2022-12-08T05:26:18.779Z,100697.00
2022-12-08T05:28:46.123Z,100713.47
2022-12-08T05:31:15.063Z,100704.47
2022-12-08T05:33:43.204Z,100694.03
2022-12-08T05:36:12.650Z,100697.22
2022-12-08T05:38:40.138Z,100695.97
2022-12-08T05:41:07.875Z,100700.88
2022-12-08T05:43:35.295Z,100707.66
2022-12-08T05:46:02.692Z,100703.19
2022-12-08T05:48:29.946Z,100702.13
2022-12-08T05:50:57.346Z,100707.13
2022-12-08T05:53:24.713Z,100696.84
2022-12-08T05:55:51.944Z,100697.13
2022-12-08T05:58:20.686Z,100706.94
2022-12-08T06:00:49.324Z,100701.75
2022-12-08T06:03:18.338Z,100699.03
2022-12-08T06:05:46.815Z,100689.47
2022-12-08T06:08:14.296Z,100693.22
2022-12-08T06:10:43.845Z,100691.34
2022-12-08T06:13:11.081Z,100697.44
2022-12-08T06:15:38.848Z,100695.78
2022-12-08T06:18:07.142Z,100685.41
2022-12-08T06:20:34.437Z,100693.84
2022-12-08T06:23:02.098Z,100688.94
2022-12-08T06:25:29.404Z,100688.16
2022-12-08T06:27:56.635Z,100682.69
2022-12-08T06:30:23.930Z,100680.50
2022-12-08T06:32:51.261Z,100690.88
2022-12-08T06:35:18.486Z,100686.00
2022-12-08T06:37:45.767Z,100682.13
2022-12-08T06:40:13.368Z,100672.53
2022-12-08T06:42:47.274Z,100676.66
2022-12-08T06:45:16.345Z,100675.50
2022-12-08T06:47:44.172Z,100669.13
2022-12-08T06:50:12.728Z,100673.28
2022-12-08T06:52:51.653Z,100672.13
2022-12-08T06:55:50.843Z,100662.78
2022-12-08T06:58:08.872Z,100670.00
2022-12-08T07:00:36.137Z,100671.69
2022-12-08T07:03:03.470Z,100673.56
2022-12-08T07:05:30.723Z,100669.44
2022-12-08T07:07:58.110Z,100669.91
2022-12-08T07:10:25.375Z,100666.94
2022-12-08T07:12:52.669Z,100669.88
2022-12-08T07:15:20.429Z,100669.53
2022-12-08T07:17:48.260Z,100663.63
2022-12-08T07:20:15.877Z,100671.81
2022-12-08T07:22:52.155Z,100670.44
2022-12-08T07:25:19.987Z,100672.63
2022-12-08T07:27:47.930Z,100667.22
2022-12-08T07:30:15.235Z,100662.25
2022-12-08T07:32:42.538Z,100668.22
2022-12-08T07:35:10.320Z,100666.06
2022-12-08T07:37:38.230Z,100668.19
2022-12-08T07:40:07.822Z,100674.97
2022-12-08T07:42:35.595Z,100675.31
2022-12-08T07:45:02.943Z,100675.13
2022-12-08T07:47:30.203Z,100672.38
2022-12-08T07:49:57.556Z,100668.53
2022-12-08T07:52:24.865Z,100670.19
2022-12-08T07:54:52.137Z,100672.28
2022-12-08T07:57:19.341Z,100663.53
2022-12-08T07:59:46.689Z,100663.81
2022-12-08T08:02:26.220Z,100671.88
2022-12-08T08:04:54.358Z,100658.72
2022-12-08T08:07:21.804Z,100663.59
2022-12-08T08:09:49.490Z,100653.78
2022-12-08T08:12:32.916Z,100649.16
2022-12-08T08:15:01.662Z,100654.59
2022-12-08T08:17:29.917Z,100651.09
2022-12-08T08:19:57.455Z,100644.25
2022-12-08T08:22:26.703Z,100649.75
2022-12-08T08:24:54.377Z,100647.38
2022-12-08T08:27:22.803Z,100651.53
2022-12-08T08:29:50.221Z,100651.59
2022-12-08T08:32:17.610Z,100647.69
2022-12-08T08:34:44.913Z,100655.53
2022-12-08T08:37:12.110Z,100659.69
2022-12-08T08:39:39.435Z,100646.25
2022-12-08T08:42:06.612Z,100639.47
2022-12-08T08:44:33.894Z,100629.69
2022-12-08T08:47:02.665Z,100632.66
2022-12-08T08:49:29.869Z,100631.72
2022-12-08T08:51:57.569Z,100636.88
2022-12-08T08:54:24.772Z,100627.84
2022-12-08T08:56:52.681Z,100630.66
2022-12-08T08:59:19.937Z,100635.03
2022-12-08T09:01:48.170Z,100635.16
2022-12-08T09:04:15.879Z,100633.31
2022-12-08T09:06:44.158Z,100631.41
2022-12-08T09:09:12.157Z,100627.84
2022-12-08T09:11:39.446Z,100634.13
2022-12-08T09:14:07.355Z,100630.31
2022-12-08T09:16:40.403Z,100637.59
2022-12-08T09:19:09.442Z,100634.66
2022-12-08T09:21:36.759Z,100629.00
2022-12-08T09:24:04.186Z,100626.72
2022-12-08T09:26:31.423Z,100624.09
2022-12-08T09:28:58.727Z,100628.63
2022-12-08T09:31:26.112Z,100626.59
2022-12-08T09:33:53.796Z,100619.50
2022-12-08T09:36:21.348Z,100625.56
2022-12-08T09:38:50.247Z,100623.34
2022-12-08T09:41:24.356Z,100623.31
2022-12-08T09:43:51.668Z,100621.56
2022-12-08T09:46:19.436Z,100625.31
2022-12-08T09:48:55.671Z,100621.94
2022-12-08T09:51:28.046Z,100616.78
2022-12-08T09:54:19.352Z,100618.03
2022-12-08T09:56:47.829Z,100610.84
2022-12-08T09:59:24.500Z,100606.94
2022-12-08T10:01:52.769Z,100598.41
2022-12-08T10:04:26.301Z,100604.06
2022-12-08T10:07:30.767Z,100597.53
2022-12-08T10:10:27.530Z,100593.13
2022-12-08T10:13:08.606Z,100583.56
2022-12-08T10:16:01.001Z,100588.50
2022-12-08T10:18:33.061Z,100589.47
2022-12-08T10:21:13.701Z,100584.16
2022-12-08T10:23:45.353Z,100590.66
2022-12-08T10:26:15.441Z,100583.34
2022-12-08T10:28:45.164Z,100578.00
2022-12-08T10:31:21.988Z,100566.97
2022-12-08T10:34:00.541Z,100571.00
2022-12-08T10:36:51.877Z,100560.97
2022-12-08T10:39:40.289Z,100552.66
2022-12-08T10:42:22.150Z,100552.16
2022-12-08T10:45:08.510Z,100550.00
2022-12-08T10:47:38.267Z,100549.16
2022-12-08T10:50:36.992Z,100553.44
2022-12-08T10:53:07.314Z,100552.16
2022-12-08T10:56:11.718Z,100534.25
2022-12-08T10:58:40.978Z,100531.19
2022-12-08T11:01:14.114Z,100539.19
2022-12-08T11:03:47.640Z,100529.53
2022-12-08T11:06:20.743Z,100529.22
2022-12-08T11:09:03.377Z,100529.78
2022-12-08T11:11:39.574Z,100516.63
2022-12-08T11:14:08.317Z,100517.47
2022-12-08T11:16:36.044Z,100507.09
2022-12-08T11:19:06.692Z,100505.09
2022-12-08T11:21:37.309Z,100498.63
2022-12-08T11:24:21.972Z,100506.94
2022-12-08T11:27:01.149Z,100506.56
2022-12-08T11:29:29.356Z,100504.06
2022-12-08T11:32:06.175Z,100502.53
2022-12-08T11:34:39.589Z,100499.25
2022-12-08T11:37:11.266Z,100495.94
2022-12-08T11:39:43.979Z,100501.19
2022-12-08T11:42:13.417Z,100495.91
2022-12-08T11:44:57.920Z,100490.72
2022-12-08T11:47:31.830Z,100482.44
2022-12-08T11:50:25.718Z,100486.25
2022-12-08T11:52:53.644Z,100483.16
2022-12-08T11:55:48.145Z,100486.34
2022-12-08T11:58:21.655Z,100480.44
2022-12-08T12:00:49.715Z,100478.75
2022-12-08T12:03:37.399Z,100481.31
2022-12-08T12:06:37.608Z,100472.44
2022-12-08T12:09:10.084Z,100469.69
2022-12-08T12:12:13.810Z,100468.72
2022-12-08T12:14:47.217Z,100464.56
2022-12-08T12:17:42.257Z,100469.06
2022-12-08T12:20:20.258Z,100459.22
2022-12-08T12:22:51.466Z,100452.53
2022-12-08T12:25:24.450Z,100451.88
2022-12-08T12:27:57.909Z,100445.63
2022-12-08T12:30:27.299Z,100446.72
2022-12-08T12:32:57.654Z,100450.22
2022-12-08T12:35:33.678Z,100441.72
2022-12-08T12:38:48.860Z,100444.19
2022-12-08T12:41:25.521Z,100440.56
2022-12-08T12:44:29.531Z,100453.69
2022-12-08T12:47:02.659Z,100451.19
2022-12-08T12:49:38.956Z,100439.00
2022-12-08T12:52:15.288Z,100438.66
2022-12-08T12:55:11.370Z,100433.28
2022-12-08T12:57:40.406Z,100432.13
2022-12-08T13:00:24.575Z,100435.75
2022-12-08T13:02:53.764Z,100428.84
2022-12-08T13:05:23.438Z,100427.31
2022-12-08T13:08:00.365Z,100428.09
2022-12-08T13:10:30.781Z,100423.75
2022-12-08T13:13:10.714Z,100418.59
2022-12-08T13:15:39.298Z,100416.19
2022-12-08T13:18:07.978Z,100423.22
2022-12-08T13:20:42.832Z,100416.22
2022-12-08T13:23:27.597Z,100410.66
2022-12-08T13:26:24.942Z,100410.44
2022-12-08T13:29:04.290Z,100412.06
2022-12-08T13:31:34.998Z,100405.66
2022-12-08T13:34:06.448Z,100405.59
2022-12-08T13:36:38.052Z,100403.38
2022-12-08T13:39:06.344Z,100394.56
2022-12-08T13:41:53.996Z,100391.69
2022-12-08T13:47:33.927Z,100379.56
2022-12-08T13:58:50.154Z,100380.28
2022-12-08T14:01:22.317Z,100382.72
2022-12-08T14:04:22.040Z,100373.41
2022-12-08T14:06:45.969Z,100381.50
2022-12-08T14:09:16.550Z,100377.09
2022-12-08T14:11:47.850Z,100368.53
2022-12-08T14:14:45.820Z,100370.25
2022-12-08T14:17:22.319Z,100365.19
2022-12-08T14:20:12.921Z,100371.38
2022-12-08T14:22:41.179Z,100366.56
2022-12-08T14:25:14.436Z,100373.16
2022-12-08T14:27:42.018Z,100380.84
2022-12-08T14:30:13.368Z,100373.75
2022-12-08T14:32:48.744Z,100376.19
2022-12-08T14:35:20.888Z,100374.28
2022-12-08T14:37:49.392Z,100367.47
2022-12-08T14:40:22.993Z,100362.06
2022-12-08T14:42:52.428Z,100358.50
2022-12-08T14:45:20.097Z,100355.53
2022-12-08T14:47:48.626Z,100346.03
2022-12-08T14:50:39.572Z,100349.16
2022-12-08T14:53:17.494Z,100339.88
2022-12-08T14:55:46.493Z,100344.38
2022-12-08T14:58:32.051Z,100350.44
2022-12-08T15:01:00.226Z,100349.44
2022-12-08T15:03:29.060Z,100350.97
2022-12-08T15:05:58.547Z,100358.09
2022-12-08T15:08:26.069Z,100352.56
2022-12-08T15:11:21.685Z,100344.00
2022-12-08T15:13:51.552Z,100341.09
2022-12-08T15:16:38.695Z,100341.72
2022-12-08T15:19:16.509Z,100344.22
2022-12-08T15:21:45.243Z,100341.44
2022-12-08T15:24:13.714Z,100335.19
2022-12-08T15:26:46.858Z,100336.75
2022-12-08T15:29:25.499Z,100330.22
2022-12-08T15:31:55.631Z,100330.66
2022-12-08T15:34:22.870Z,100333.84
2022-12-08T15:36:51.456Z,100333.25
2022-12-08T15:39:21.358Z,100334.13
2022-12-08T15:41:48.647Z,100338.34
2022-12-08T15:44:15.858Z,100330.91
2022-12-08T15:46:43.143Z,100332.22
2022-12-08T15:49:17.952Z,100338.28
2022-12-08T15:51:45.516Z,100332.34
2022-12-08T15:54:13.210Z,100334.28
2022-12-08T15:57:18.051Z,100328.88
2022-12-08T15:59:39.737Z,100328.72
2022-12-08T16:02:08.858Z,100330.97
2022-12-08T16:07:26.546Z,100326.72
2022-12-08T16:09:54.573Z,100327.94
2022-12-08T16:13:48.023Z,100328.34
2022-12-08T16:15:51.767Z,100324.88
2022-12-08T16:18:26.231Z,100324.41
2022-12-08T16:23:44.270Z,100323.09
2022-12-08T16:26:28.945Z,100321.88
2022-12-08T16:29:05.681Z,100315.66
2022-12-08T16:31:33.181Z,100318.31
2022-12-08T16:34:00.697Z,100318.53
2022-12-08T16:36:27.910Z,100319.44
2022-12-08T16:38:55.166Z,100320.72
2022-12-08T16:41:41.208Z,100318.09
2022-12-08T16:44:08.522Z,100314.91
2022-12-08T16:46:36.965Z,100312.41
2022-12-08T16:49:04.847Z,100314.06
2022-12-08T16:51:32.137Z,100317.28
2022-12-08T16:53:59.551Z,100311.88
2022-12-08T16:56:32.735Z,100306.53
2022-12-08T16:59:01.840Z,100304.66
2022-12-08T17:01:29.344Z,100303.31
2022-12-08T17:04:29.141Z,100309.44
2022-12-08T17:06:44.457Z,100312.78
2022-12-08T17:09:11.931Z,100311.03
2022-12-08T17:11:42.915Z,100308.47
2022-12-08T17:14:12.781Z,100308.06
2022-12-08T17:16:40.478Z,100305.78
2022-12-08T17:19:07.830Z,100310.03
2022-12-08T17:21:35.792Z,100307.06
2022-12-08T17:24:03.226Z,100305.53
2022-12-08T17:26:30.630Z,100301.75
2022-12-08T17:29:00.998Z,100308.53
2022-12-08T17:31:31.222Z,100300.13
2022-12-08T17:34:00.795Z,100296.06
2022-12-08T17:36:28.203Z,100289.66
2022-12-08T17:38:56.427Z,100291.13
2022-12-08T17:41:23.674Z,100293.50
2022-12-08T17:43:51.009Z,100292.63
2022-12-08T17:46:19.289Z,100289.00
2022-12-08T17:48:46.887Z,100288.50
2022-12-08T17:51:14.912Z,100291.47
2022-12-08T17:53:42.300Z,100284.47
2022-12-08T17:56:19.784Z,100294.38
2022-12-08T17:58:51.329Z,100288.53
2022-12-08T18:01:23.397Z,100290.56
2022-12-08T18:03:51.084Z,100294.53
2022-12-08T18:06:18.340Z,100292.72
2022-12-08T18:08:45.636Z,100292.34
2022-12-08T18:11:16.076Z,100297.56
2022-12-08T18:13:43.441Z,100292.16
2022-12-08T18:16:10.763Z,100295.38
2022-12-08T18:18:38.099Z,100289.78
2022-12-08T18:21:05.635Z,100299.97
2022-12-08T18:23:33.293Z,100291.25
2022-12-08T18:26:00.742Z,100293.41
2022-12-08T18:28:28.071Z,100283.00
2022-12-08T18:30:55.507Z,100285.69
2022-12-08T18:33:22.914Z,100285.44
2022-12-08T18:35:50.304Z,100286.25
2022-12-08T18:38:17.508Z,100279.81
2022-12-08T18:40:45.186Z,100277.56
2022-12-08T18:43:12.505Z,100286.25
2022-12-08T18:45:39.907Z,100279.53
2022-12-08T18:48:09.081Z,100279.47
2022-12-08T18:50:36.444Z,100270.06
2022-12-08T18:53:03.771Z,100269.00
2022-12-08T18:55:31.171Z,100278.69
2022-12-08T18:57:58.476Z,100268.28
2022-12-08T19:00:25.791Z,100271.28
2022-12-08T19:02:53.288Z,100273.28
2022-12-08T19:05:20.667Z,100266.84
2022-12-08T19:07:48.102Z,100267.75
2022-12-08T19:10:15.510Z,100269.31
2022-12-08T19:12:42.945Z,100273.66
2022-12-08T19:15:10.809Z,100266.84
2022-12-08T19:17:38.080Z,100267.59
2022-12-08T19:20:06.766Z,100264.22
2022-12-08T19:22:34.364Z,100262.38
2022-12-08T19:25:01.815Z,100267.28
2022-12-08T19:27:29.715Z,100261.78
2022-12-08T19:29:57.044Z,100262.50
2022-12-08T19:32:24.609Z,100264.63
2022-12-08T19:34:52.456Z,100265.69
2022-12-08T19:37:19.796Z,100261.25
2022-12-08T19:40:06.225Z,100264.41
2022-12-08T19:42:52.284Z,100263.25
2022-12-08T19:45:21.685Z,100268.19
2022-12-08T19:47:49.285Z,100269.47
2022-12-08T19:50:35.835Z,100259.34
2022-12-08T19:53:08.977Z,100271.97
2022-12-08T19:55:36.703Z,100268.41
2022-12-08T19:58:04.767Z,100272.34
2022-12-08T20:00:32.852Z,100267.88
2022-12-08T20:03:02.092Z,100268.78
2022-12-08T20:05:31.041Z,100261.03
2022-12-08T20:07:58.503Z,100258.75
2022-12-08T20:10:28.236Z,100263.63
2022-12-08T20:13:16.187Z,100263.84
2022-12-08T20:15:43.594Z,100259.59
2022-12-08T20:18:12.218Z,100262.56
2022-12-08T20:20:40.193Z,100260.34
2022-12-08T20:23:07.712Z,100261.47
2022-12-08T20:25:37.549Z,100261.31
2022-12-08T20:28:04.971Z,100258.16
2022-12-08T20:30:32.464Z,100260.59
2022-12-08T20:32:59.882Z,100257.56
2022-12-08T20:35:27.253Z,100259.31
2022-12-08T20:37:54.518Z,100262.88
2022-12-08T20:40:21.801Z,100255.41
2022-12-08T20:42:49.288Z,100260.06
2022-12-08T20:45:16.577Z,100258.00
2022-12-08T20:47:44.044Z,100254.75
2022-12-08T20:50:11.894Z,100258.56
2022-12-08T20:52:39.590Z,100256.28
2022-12-08T20:55:08.120Z,100246.81
2022-12-08T20:57:35.544Z,100249.06
2022-12-08T21:00:04.411Z,100246.88
2022-12-08T21:02:32.338Z,100237.28
2022-12-08T21:04:59.815Z,100241.88
2022-12-08T21:07:27.231Z,100235.69
2022-12-08T21:09:54.790Z,100238.13
2022-12-08T21:12:22.184Z,100232.13
2022-12-08T21:14:49.485Z,100229.09
2022-12-08T21:17:16.993Z,100227.19
2022-12-08T21:19:44.516Z,100229.78
2022-12-08T21:22:12.593Z,100227.19
2022-12-08T21:24:40.094Z,100226.38
2022-12-08T21:27:07.507Z,100231.31
2022-12-08T21:29:34.933Z,100228.38
2022-12-08T21:32:02.259Z,100228.56
2022-12-08T21:34:34.118Z,100233.31
2022-12-08T21:37:02.468Z,100227.63
2022-12-08T21:39:29.963Z,100229.03
2022-12-08T21:42:20.390Z,100222.22
2022-12-08T21:44:49.929Z,100221.56
2022-12-08T21:47:17.343Z,100222.09
2022-12-08T21:49:44.738Z,100228.44
2022-12-08T21:52:12.005Z,100222.31
2022-12-08T21:54:39.369Z,100225.03
2022-12-08T21:57:06.818Z,100218.47
2022-12-08T21:59:34.415Z,100215.72
2022-12-08T22:02:02.198Z,100212.63
2022-12-08T22:04:30.164Z,100219.06
2022-12-08T22:06:57.711Z,100210.31
2022-12-08T22:09:25.113Z,100208.25
2022-12-08T22:11:52.451Z,100207.88
2022-12-08T22:14:20.106Z,100211.97
2022-12-08T22:16:47.544Z,100207.50
2022-12-08T22:19:15.262Z,100204.19
2022-12-08T22:21:43.228Z,100204.72
2022-12-08T22:24:10.698Z,100202.31
2022-12-08T22:26:38.180Z,100211.22
2022-12-08T22:29:05.612Z,100210.22
2022-12-08T22:31:33.051Z,100205.91
2022-12-08T22:34:00.382Z,100206.53
2022-12-08T22:36:28.182Z,100206.44
2022-12-08T22:38:55.816Z,100209.84
2022-12-08T22:41:23.847Z,100207.28
2022-12-08T22:43:51.440Z,100207.44
2022-12-08T22:46:21.730Z,100199.50
2022-12-08T22:48:49.811Z,100206.00
2022-12-08T22:51:18.169Z,100197.97
2022-12-08T22:53:46.101Z,100196.53
2022-12-08T22:56:14.678Z,100194.22
2022-12-08T22:58:41.992Z,100189.50
2022-12-08T23:01:14.764Z,100188.75
2022-12-08T23:03:42.408Z,100187.44
2022-12-08T23:06:13.145Z,100195.59
2022-12-08T23:08:40.752Z,100185.03
2022-12-08T23:11:08.193Z,100181.63
2022-12-08T23:13:37.409Z,100181.19
2022-12-08T23:16:05.639Z,100176.53
2022-12-08T23:18:32.920Z,100171.63
2022-12-08T23:21:06.571Z,100175.88
2022-12-08T23:23:34.128Z,100172.78
2022-12-08T23:26:01.679Z,100174.56
2022-12-08T23:28:29.301Z,100171.69
2022-12-08T23:30:56.795Z,100164.72
2022-12-08T23:33:24.293Z,100169.88
2022-12-08T23:35:59.130Z,100164.53
2022-12-08T23:38:26.458Z,100161.44
2022-12-08T23:40:54.227Z,100166.13
2022-12-08T23:43:21.618Z,100160.28
2022-12-08T23:45:49.030Z,100162.19
2022-12-08T23:48:16.854Z,100164.50
2022-12-08T23:50:44.304Z,100154.94
2022-12-08T23:53:11.595Z,100161.66
2022-12-08T23:55:39.582Z,100158.78
2022-12-08T23:58:06.899Z,100158.81
